createdAt,value
2023-04-16T00:01:35.164Z,9.46
2023-04-16T00:04:01.947Z,9.37
2023-04-16T00:06:28.948Z,9.32
2023-04-16T00:08:56.190Z,9.14
2023-04-16T00:11:22.827Z,9.28
2023-04-16T00:13:49.661Z,9.14
2023-04-16T00:16:16.457Z,9.14
2023-04-16T00:18:43.162Z,9.03
2023-04-16T00:21:09.778Z,8.96
2023-04-16T00:23:36.505Z,9.00
2023-04-16T00:26:03.244Z,8.92
2023-04-16T00:28:29.935Z,8.89
2023-04-16T00:30:56.802Z,8.70
2023-04-16T00:33:23.807Z,8.58
2023-04-16T00:35:51.339Z,8.54
2023-04-16T00:38:18.260Z,8.51
2023-04-16T00:40:44.909Z,8.43
2023-04-16T00:43:11.632Z,8.35
2023-04-16T00:45:38.639Z,8.12
2023-04-16T00:48:06.074Z,8.07
2023-04-16T00:50:33.771Z,8.10
2023-04-16T00:53:01.733Z,8.06
2023-04-16T00:55:28.448Z,8.09
2023-04-16T00:57:55.211Z,8.05
2023-04-16T01:00:22.141Z,8.02
2023-04-16T01:02:48.931Z,7.86
2023-04-16T01:05:15.802Z,7.87
2023-04-16T01:07:42.444Z,7.84
2023-04-16T01:10:09.109Z,7.83
2023-04-16T01:12:35.922Z,7.85
2023-04-16T01:15:03.313Z,7.83
2023-04-16T01:17:29.956Z,7.90
2023-04-16T01:20:00.136Z,7.46
2023-04-16T01:22:28.337Z,7.60
2023-04-16T01:24:55.097Z,7.45
2023-04-16T01:27:21.759Z,7.50
2023-04-16T01:29:48.504Z,7.54
2023-04-16T01:32:15.170Z,7.50
2023-04-16T01:34:41.924Z,7.52
2023-04-16T01:37:08.681Z,7.51
2023-04-16T01:39:35.645Z,7.56
2023-04-16T01:42:02.477Z,7.65
2023-04-16T01:44:29.255Z,7.66
2023-04-16T01:46:56.011Z,7.80
2023-04-16T01:49:23.017Z,7.75
2023-04-16T01:51:49.844Z,7.92
2023-04-16T01:54:16.627Z,8.05
2023-04-16T01:56:43.375Z,8.03
2023-04-16T01:59:10.266Z,8.08
2023-04-16T02:01:37.110Z,8.13
2023-04-16T02:04:03.959Z,8.09
2023-04-16T02:06:31.626Z,8.04
2023-04-16T02:08:58.290Z,8.11
2023-04-16T02:11:24.855Z,8.12
2023-04-16T02:13:51.497Z,8.13
2023-04-16T02:16:18.246Z,8.16
2023-04-16T02:18:44.945Z,8.13
2023-04-16T02:21:11.599Z,8.10
2023-04-16T02:23:41.260Z,8.00
2023-04-16T02:26:07.944Z,7.93
2023-04-16T02:28:34.478Z,7.81
2023-04-16T02:31:01.159Z,7.72
2023-04-16T02:33:27.866Z,7.71
2023-04-16T02:35:54.533Z,7.76
2023-04-16T02:38:21.713Z,7.70
2023-04-16T02:40:48.388Z,7.88
2023-04-16T02:43:15.029Z,7.92
2023-04-16T02:45:41.724Z,7.94
2023-04-16T02:48:09.926Z,8.06
2023-04-16T02:50:36.570Z,8.05
2023-04-16T02:53:04.297Z,8.14
2023-04-16T02:55:30.883Z,7.91
2023-04-16T02:57:57.527Z,8.00
2023-04-16T03:00:24.216Z,7.97
2023-04-16T03:02:51.180Z,7.73
2023-04-16T03:05:17.926Z,7.74
2023-04-16T03:07:44.527Z,7.60
2023-04-16T03:10:12.094Z,7.65
2023-04-16T03:12:39.306Z,7.66
2023-04-16T03:15:06.328Z,7.64
2023-04-16T03:17:33.021Z,7.70
2023-04-16T03:19:59.814Z,7.62
2023-04-16T03:22:27.044Z,7.77
2023-04-16T03:24:53.756Z,7.77
2023-04-16T03:27:20.416Z,7.95
2023-04-16T03:29:47.062Z,8.02
2023-04-16T03:32:13.805Z,7.92
2023-04-16T03:34:40.458Z,7.85
2023-04-16T03:37:07.193Z,7.81
2023-04-16T03:39:34.565Z,7.63
2023-04-16T03:42:02.262Z,7.63
2023-04-16T03:44:29.705Z,7.59
2023-04-16T03:46:56.387Z,7.59
2023-04-16T03:49:23.261Z,7.74
2023-04-16T03:51:49.839Z,7.70
2023-04-16T03:54:16.415Z,7.71
2023-04-16T03:56:43.184Z,7.56
2023-04-16T03:59:10.232Z,7.88
2023-04-16T04:01:36.984Z,7.83
2023-04-16T04:04:04.000Z,7.94
2023-04-16T04:06:31.177Z,7.87
2023-04-16T04:08:58.327Z,7.87
2023-04-16T04:11:24.977Z,7.90
2023-04-16T04:13:51.575Z,7.88
2023-04-16T04:16:18.266Z,7.97
2023-04-16T04:18:45.007Z,7.99
2023-04-16T04:21:11.776Z,8.02
2023-04-16T04:23:38.519Z,7.99
2023-04-16T04:26:05.877Z,8.00
2023-04-16T04:28:33.163Z,7.85
2023-04-16T04:31:00.687Z,7.67
2023-04-16T04:33:27.744Z,7.59
2023-04-16T04:35:55.129Z,7.49
2023-04-16T04:38:25.270Z,7.60
2023-04-16T04:40:52.933Z,7.54
2023-04-16T04:43:23.050Z,7.53
2023-04-16T04:45:49.773Z,7.53
2023-04-16T04:48:16.705Z,7.57
2023-04-16T04:50:46.163Z,7.68
2023-04-16T04:53:14.833Z,7.67
2023-04-16T04:55:41.526Z,7.61
2023-04-16T04:58:08.676Z,7.62
2023-04-16T05:00:37.004Z,7.74
2023-04-16T05:03:06.874Z,7.84
2023-04-16T05:05:33.698Z,7.91
2023-04-16T05:08:00.375Z,7.93
2023-04-16T05:10:27.503Z,8.10
2023-04-16T05:12:54.260Z,8.11
2023-04-16T05:15:21.082Z,8.18
2023-04-16T05:17:47.751Z,8.24
2023-04-16T05:20:14.668Z,8.30
2023-04-16T05:22:41.451Z,8.40
2023-04-16T05:25:08.442Z,8.45
2023-04-16T05:27:35.122Z,8.54
2023-04-16T05:30:01.772Z,8.67
2023-04-16T05:32:28.418Z,8.78
2023-04-16T05:34:55.121Z,8.78
2023-04-16T05:37:22.321Z,8.92
2023-04-16T05:39:49.042Z,9.16
2023-04-16T05:42:15.886Z,9.42
2023-04-16T05:44:42.639Z,9.64
2023-04-16T05:47:09.583Z,9.45
2023-04-16T05:49:39.352Z,9.63
2023-04-16T05:52:06.367Z,9.52
2023-04-16T05:54:32.965Z,9.43
2023-04-16T05:57:01.130Z,9.44
2023-04-16T05:59:27.990Z,9.61
2023-04-16T06:01:54.725Z,9.53
2023-04-16T06:04:21.352Z,9.66
2023-04-16T06:06:48.067Z,9.54
2023-04-16T06:09:14.749Z,9.83
2023-04-16T06:11:41.442Z,9.95
2023-04-16T06:14:08.278Z,9.99
2023-04-16T06:16:34.863Z,10.19
2023-04-16T06:19:01.513Z,10.41
2023-04-16T06:21:29.126Z,10.67
2023-04-16T06:23:56.291Z,10.72
2023-04-16T06:26:23.091Z,10.91
2023-04-16T06:28:50.564Z,11.17
2023-04-16T06:31:17.323Z,11.08
2023-04-16T06:33:44.089Z,11.26
2023-04-16T06:36:11.647Z,11.32
2023-04-16T06:38:38.591Z,11.51
2023-04-16T06:41:05.420Z,11.51
2023-04-16T06:43:33.568Z,11.60
2023-04-16T06:46:00.363Z,11.82
2023-04-16T06:48:27.569Z,11.93
2023-04-16T06:50:55.691Z,12.20
2023-04-16T06:53:22.890Z,12.54
2023-04-16T06:55:49.593Z,12.76
2023-04-16T06:58:16.336Z,13.09
2023-04-16T07:00:42.995Z,13.25
2023-04-16T07:03:09.812Z,13.34
2023-04-16T07:05:36.607Z,13.52
2023-04-16T07:08:03.330Z,13.48
2023-04-16T07:10:29.954Z,13.31
2023-04-16T07:12:56.599Z,12.97
2023-04-16T07:15:23.570Z,12.98
2023-04-16T07:17:50.883Z,13.05
2023-04-16T07:20:17.932Z,12.82
2023-04-16T07:22:44.589Z,13.15
2023-04-16T07:25:12.057Z,13.22
2023-04-16T07:27:38.655Z,12.84
2023-04-16T07:30:06.045Z,12.60
2023-04-16T07:32:32.894Z,13.02
2023-04-16T07:34:59.580Z,13.29
2023-04-16T07:37:26.585Z,13.37
2023-04-16T07:39:55.124Z,13.40
2023-04-16T07:42:22.811Z,13.60
2023-04-16T07:44:49.549Z,13.73
2023-04-16T07:47:16.246Z,13.75
2023-04-16T07:49:42.804Z,13.86
2023-04-16T07:52:09.579Z,13.96
2023-04-16T07:54:36.423Z,14.48
2023-04-16T07:57:03.152Z,14.56
2023-04-16T07:59:30.347Z,14.73
2023-04-16T08:01:57.534Z,14.80
2023-04-16T08:04:25.634Z,15.01
2023-04-16T08:06:52.806Z,14.78
2023-04-16T08:09:20.730Z,14.60
2023-04-16T08:11:49.259Z,14.72
2023-04-16T08:14:19.068Z,15.12
2023-04-16T08:16:45.880Z,14.80
2023-04-16T08:19:12.802Z,14.88
2023-04-16T08:21:39.621Z,14.92
2023-04-16T08:24:06.566Z,15.25
2023-04-16T08:26:33.831Z,15.35
2023-04-16T08:29:00.649Z,15.74
2023-04-16T08:31:27.569Z,15.66
2023-04-16T08:33:54.424Z,15.66
2023-04-16T08:36:21.339Z,15.31
2023-04-16T08:38:48.356Z,15.34
2023-04-16T08:41:15.842Z,15.21
2023-04-16T08:43:45.431Z,15.04
2023-04-16T08:46:13.022Z,14.75
2023-04-16T08:48:43.046Z,15.31
2023-04-16T08:51:11.165Z,15.67
2023-04-16T08:53:54.510Z,15.95
2023-04-16T08:56:27.279Z,16.06
2023-04-16T08:58:55.511Z,16.20
2023-04-16T09:01:22.798Z,16.10
2023-04-16T09:03:50.146Z,16.26
2023-04-16T09:06:18.418Z,16.09
2023-04-16T09:08:46.487Z,16.26
2023-04-16T09:11:14.529Z,16.27
2023-04-16T09:13:41.311Z,16.23
2023-04-16T09:16:09.939Z,15.63
2023-04-16T09:18:36.675Z,14.99
2023-04-16T09:21:04.651Z,14.79
2023-04-16T09:23:31.424Z,15.05
2023-04-16T09:25:59.610Z,15.21
2023-04-16T09:28:48.939Z,15.43
2023-04-16T09:31:17.920Z,15.49
2023-04-16T09:34:05.627Z,15.59
2023-04-16T09:36:32.973Z,15.86
2023-04-16T09:39:00.494Z,16.24
2023-04-16T09:41:29.498Z,16.25
2023-04-16T09:43:58.219Z,16.00
2023-04-16T09:46:45.111Z,16.14
2023-04-16T09:49:16.821Z,15.68
2023-04-16T09:51:46.254Z,16.07
2023-04-16T09:54:12.987Z,16.05
2023-04-16T09:56:42.139Z,16.49
2023-04-16T09:59:16.616Z,17.13
2023-04-16T10:01:43.566Z,17.25
2023-04-16T10:04:10.578Z,17.55
2023-04-16T10:06:37.186Z,17.68
2023-04-16T10:09:07.951Z,17.51
2023-04-16T10:11:35.106Z,17.41
2023-04-16T10:14:01.712Z,17.25
2023-04-16T10:16:32.267Z,17.47
2023-04-16T10:18:59.431Z,17.67
2023-04-16T10:21:33.083Z,17.88
2023-04-16T10:24:00.616Z,17.95
2023-04-16T10:26:30.156Z,17.88
2023-04-16T10:28:58.999Z,17.92
2023-04-16T10:31:27.341Z,18.17
2023-04-16T10:33:54.548Z,18.14
2023-04-16T10:36:26.446Z,17.92
2023-04-16T10:38:57.915Z,18.08
2023-04-16T10:41:26.778Z,18.01
2023-04-16T10:43:53.562Z,18.07
2023-04-16T10:46:26.736Z,18.22
2023-04-16T10:48:54.840Z,17.84
2023-04-16T10:51:24.390Z,17.78
2023-04-16T10:53:51.003Z,17.85
2023-04-16T10:56:26.250Z,17.93
2023-04-16T10:58:58.481Z,17.94
2023-04-16T11:01:44.895Z,17.90
2023-04-16T11:04:20.840Z,18.09
2023-04-16T11:07:17.134Z,18.45
2023-04-16T11:09:57.545Z,18.25
2023-04-16T11:12:35.929Z,18.49
2023-04-16T11:15:06.451Z,18.96
2023-04-16T11:17:47.326Z,19.06
2023-04-16T11:20:22.822Z,19.41
2023-04-16T11:22:52.873Z,19.04
2023-04-16T11:25:34.065Z,18.40
2023-04-16T11:28:02.405Z,18.34
2023-04-16T11:30:30.653Z,18.49
2023-04-16T11:32:57.373Z,18.48
2023-04-16T11:35:24.032Z,18.51
2023-04-16T11:37:55.610Z,18.41
2023-04-16T11:40:22.358Z,18.49
2023-04-16T11:42:48.938Z,18.61
2023-04-16T11:45:15.642Z,18.56
2023-04-16T11:47:53.218Z,18.65
2023-04-16T11:50:23.634Z,18.73
2023-04-16T11:52:52.160Z,18.63
2023-04-16T11:55:19.589Z,18.70
2023-04-16T11:57:46.431Z,18.78
2023-04-16T12:00:14.307Z,18.64
2023-04-16T12:02:50.584Z,18.74
2023-04-16T12:05:38.946Z,18.76
2023-04-16T12:08:11.280Z,18.81
2023-04-16T12:10:53.245Z,18.41
2023-04-16T12:13:20.374Z,18.69
2023-04-16T12:15:56.085Z,18.60
2023-04-16T12:18:26.931Z,18.79
2023-04-16T12:20:53.869Z,19.09
2023-04-16T12:23:29.161Z,19.55
2023-04-16T12:25:59.784Z,19.67
2023-04-16T12:28:35.529Z,19.79
2023-04-16T12:31:03.376Z,19.57
2023-04-16T12:33:30.993Z,19.75
2023-04-16T12:35:57.672Z,19.80
2023-04-16T12:38:25.637Z,19.77
2023-04-16T12:40:53.095Z,20.08
2023-04-16T12:43:21.487Z,20.04
2023-04-16T12:45:48.750Z,20.16
2023-04-16T12:48:15.557Z,19.39
2023-04-16T12:50:44.368Z,19.23
2023-04-16T12:53:12.099Z,18.82
2023-04-16T12:55:39.122Z,18.96
2023-04-16T12:58:05.750Z,18.44
2023-04-16T13:00:32.884Z,18.15
2023-04-16T13:02:59.814Z,17.81
2023-04-16T13:05:27.224Z,17.69
2023-04-16T13:07:54.202Z,17.56
2023-04-16T13:10:21.983Z,17.48
2023-04-16T13:12:49.147Z,17.27
2023-04-16T13:15:15.872Z,17.09
2023-04-16T13:17:42.624Z,17.17
2023-04-16T13:20:09.986Z,16.90
2023-04-16T13:22:37.017Z,16.85
2023-04-16T13:25:03.841Z,16.59
2023-04-16T13:27:32.143Z,15.86
2023-04-16T13:29:58.821Z,15.72
2023-04-16T13:32:25.668Z,15.57
2023-04-16T13:34:52.317Z,14.97
2023-04-16T13:37:18.941Z,14.80
2023-04-16T13:39:45.739Z,14.75
2023-04-16T13:42:12.317Z,14.90
2023-04-16T13:44:39.090Z,14.81
2023-04-16T13:47:05.899Z,14.64
2023-04-16T13:49:35.758Z,14.56
2023-04-16T13:52:02.998Z,14.38
2023-04-16T13:54:29.685Z,14.00
2023-04-16T13:56:56.371Z,13.71
2023-04-16T13:59:23.095Z,13.60
2023-04-16T14:01:49.791Z,13.42
2023-04-16T14:04:16.673Z,13.32
2023-04-16T14:06:43.232Z,13.31
2023-04-16T14:09:10.871Z,13.42
2023-04-16T14:11:37.804Z,13.51
2023-04-16T14:14:04.798Z,13.44
2023-04-16T14:16:31.554Z,13.32
2023-04-16T14:18:58.239Z,13.32
2023-04-16T14:21:24.853Z,13.41
2023-04-16T14:23:51.418Z,13.61
2023-04-16T14:26:18.084Z,13.84
2023-04-16T14:28:44.851Z,13.88
2023-04-16T14:31:11.419Z,13.88
2023-04-16T14:33:38.208Z,13.88
2023-04-16T14:36:05.406Z,13.90
2023-04-16T14:38:32.221Z,13.96
2023-04-16T14:41:00.379Z,13.87
2023-04-16T14:43:29.988Z,13.63
2023-04-16T14:45:59.031Z,13.16
2023-04-16T14:48:25.923Z,13.27
2023-04-16T14:50:53.690Z,13.08
2023-04-16T14:53:20.485Z,13.03
2023-04-16T14:55:47.782Z,13.04
2023-04-16T14:58:14.658Z,13.04
2023-04-16T15:00:41.433Z,12.93
2023-04-16T15:03:08.336Z,12.81
2023-04-16T15:05:35.317Z,12.67
2023-04-16T15:08:02.346Z,12.43
2023-04-16T15:10:29.048Z,12.42
2023-04-16T15:12:55.783Z,12.34
2023-04-16T15:15:22.503Z,12.28
2023-04-16T15:17:51.080Z,12.22
2023-04-16T15:20:18.037Z,12.20
2023-04-16T15:22:44.859Z,12.17
2023-04-16T15:25:11.646Z,12.07
2023-04-16T15:27:38.306Z,12.01
2023-04-16T15:30:05.433Z,11.78
2023-04-16T15:32:32.485Z,11.66
2023-04-16T15:35:00.016Z,11.60
2023-04-16T15:37:26.708Z,11.50
2023-04-16T15:39:53.308Z,11.51
2023-04-16T15:42:19.919Z,11.39
2023-04-16T15:44:46.557Z,11.44
2023-04-16T15:47:13.260Z,11.35
2023-04-16T15:49:39.921Z,11.30
2023-04-16T15:52:06.756Z,11.32
2023-04-16T15:54:33.727Z,11.30
2023-04-16T15:57:02.191Z,11.26
2023-04-16T15:59:29.108Z,11.28
2023-04-16T16:01:55.962Z,11.17
2023-04-16T16:04:23.414Z,11.15
2023-04-16T16:06:50.960Z,11.09
2023-04-16T16:09:18.651Z,11.10
2023-04-16T16:11:45.326Z,11.02
2023-04-16T16:14:11.998Z,11.00
2023-04-16T16:16:39.806Z,11.01
2023-04-16T16:19:07.235Z,11.12
2023-04-16T16:21:33.988Z,11.14
2023-04-16T16:24:00.593Z,11.13
2023-04-16T16:26:27.231Z,11.22
2023-04-16T16:28:53.825Z,11.40
2023-04-16T16:31:20.983Z,11.31
2023-04-16T16:33:47.738Z,11.31
2023-04-16T16:36:14.631Z,11.25
2023-04-16T16:38:42.514Z,11.35
2023-04-16T16:41:09.180Z,11.34
2023-04-16T16:43:36.785Z,11.40
2023-04-16T16:46:03.790Z,11.51
2023-04-16T16:48:30.463Z,11.56
2023-04-16T16:50:57.372Z,11.66
2023-04-16T16:53:23.985Z,11.69
2023-04-16T16:55:50.935Z,11.62
2023-04-16T16:58:17.602Z,11.51
2023-04-16T17:00:44.436Z,11.41
2023-04-16T17:03:11.416Z,11.53
2023-04-16T17:05:38.295Z,11.59
2023-04-16T17:08:05.053Z,11.51
2023-04-16T17:10:31.750Z,11.59
2023-04-16T17:12:58.450Z,11.62
2023-04-16T17:15:25.101Z,11.52
2023-04-16T17:17:51.813Z,11.44
2023-04-16T17:20:18.708Z,11.44
2023-04-16T17:22:45.457Z,11.47
2023-04-16T17:25:12.455Z,11.33
2023-04-16T17:27:39.369Z,11.34
2023-04-16T17:30:06.791Z,11.23
2023-04-16T17:32:33.641Z,11.14
2023-04-16T17:35:01.156Z,11.07
2023-04-16T17:37:27.978Z,10.96
2023-04-16T17:39:54.674Z,10.93
2023-04-16T17:42:21.768Z,10.80
2023-04-16T17:44:49.024Z,10.80
2023-04-16T17:47:15.974Z,10.65
2023-04-16T17:49:43.055Z,10.61
2023-04-16T17:52:09.920Z,10.51
2023-04-16T17:54:36.563Z,10.60
2023-04-16T17:57:03.196Z,10.49
2023-04-16T17:59:33.415Z,10.39
2023-04-16T18:02:01.510Z,10.52
2023-04-16T18:04:28.491Z,10.53
2023-04-16T18:06:55.320Z,10.52
2023-04-16T18:09:21.950Z,10.50
2023-04-16T18:11:48.631Z,10.50
2023-04-16T18:14:19.904Z,10.52
2023-04-16T18:16:48.148Z,10.55
2023-04-16T18:19:16.176Z,10.48
2023-04-16T18:21:43.356Z,10.48
2023-04-16T18:24:10.429Z,10.47
2023-04-16T18:26:37.613Z,10.41
2023-04-16T18:29:05.549Z,10.43
2023-04-16T18:31:32.936Z,10.42
2023-04-16T18:33:59.749Z,10.34
2023-04-16T18:36:27.265Z,10.34
2023-04-16T18:39:00.923Z,10.35
2023-04-16T18:41:29.069Z,10.41
2023-04-16T18:43:55.930Z,10.41
2023-04-16T18:46:22.953Z,10.38
2023-04-16T18:48:49.838Z,10.37
2023-04-16T18:51:16.812Z,10.39
2023-04-16T18:53:45.513Z,10.55
2023-04-16T18:56:14.159Z,10.62
2023-04-16T18:58:40.812Z,10.70
2023-04-16T19:01:11.270Z,10.60
2023-04-16T19:03:38.567Z,10.77
2023-04-16T19:06:06.080Z,10.88
2023-04-16T19:08:33.060Z,10.88
2023-04-16T19:10:59.940Z,10.92
2023-04-16T19:13:26.751Z,10.83
2023-04-16T19:16:02.795Z,10.89
2023-04-16T19:18:29.471Z,10.90
2023-04-16T19:21:00.713Z,10.83
2023-04-16T19:23:28.096Z,10.73
2023-04-16T19:25:57.893Z,10.65
2023-04-16T19:28:25.012Z,10.62
2023-04-16T19:30:52.243Z,10.66
2023-04-16T19:33:19.196Z,10.66
2023-04-16T19:35:46.430Z,10.66
2023-04-16T19:38:13.252Z,10.63
2023-04-16T19:40:40.384Z,10.49
2023-04-16T19:43:07.176Z,10.53
2023-04-16T19:45:33.884Z,10.58
2023-04-16T19:48:00.595Z,10.60
2023-04-16T19:50:27.249Z,10.63
2023-04-16T19:52:53.883Z,10.63
2023-04-16T19:55:20.549Z,10.79
2023-04-16T19:57:48.136Z,10.80
2023-04-16T20:00:15.284Z,10.77
2023-04-16T20:02:42.056Z,10.80
2023-04-16T20:05:09.332Z,10.74
2023-04-16T20:07:36.065Z,10.78
2023-04-16T20:10:03.056Z,10.80
2023-04-16T20:12:29.825Z,10.81
2023-04-16T20:14:56.443Z,10.80
2023-04-16T20:17:23.344Z,10.78
2023-04-16T20:19:51.277Z,10.63
2023-04-16T20:22:18.903Z,10.78
2023-04-16T20:24:47.964Z,10.84
2023-04-16T20:27:15.349Z,10.87
2023-04-16T20:29:42.194Z,10.90
2023-04-16T20:32:08.928Z,10.86
2023-04-16T20:34:36.719Z,10.74
2023-04-16T20:37:03.906Z,10.65
2023-04-16T20:39:34.216Z,10.59
2023-04-16T20:42:04.227Z,10.53
2023-04-16T20:44:40.443Z,10.51
2023-04-16T20:47:08.723Z,10.60
2023-04-16T20:49:35.568Z,10.64
2023-04-16T20:52:02.572Z,10.65
2023-04-16T20:54:31.996Z,10.77
2023-04-16T20:56:59.022Z,10.78
2023-04-16T20:59:26.068Z,10.79
2023-04-16T21:01:52.901Z,10.64
2023-04-16T21:04:19.610Z,10.69
2023-04-16T21:06:46.793Z,10.66
2023-04-16T21:09:13.457Z,10.62
2023-04-16T21:11:40.431Z,10.54
2023-04-16T21:14:07.070Z,10.38
2023-04-16T21:16:33.857Z,10.41
2023-04-16T21:19:00.493Z,10.50
2023-04-16T21:21:27.592Z,10.50
2023-04-16T21:23:54.257Z,10.53
2023-04-16T21:26:21.331Z,10.61
2023-04-16T21:28:48.320Z,10.67
2023-04-16T21:31:15.204Z,10.63
2023-04-16T21:33:42.016Z,10.51
2023-04-16T21:36:08.934Z,10.57
2023-04-16T21:38:35.680Z,10.61
2023-04-16T21:41:02.587Z,10.53
2023-04-16T21:43:30.686Z,10.60
2023-04-16T21:45:57.904Z,10.50
2023-04-16T21:48:24.893Z,10.55
2023-04-16T21:50:59.209Z,10.49
2023-04-16T21:53:28.086Z,10.42
2023-04-16T21:55:54.741Z,10.27
2023-04-16T21:58:21.357Z,10.25
2023-04-16T22:00:48.036Z,10.30
2023-04-16T22:03:14.954Z,10.25
2023-04-16T22:05:41.689Z,10.24
2023-04-16T22:08:23.629Z,10.14
2023-04-16T22:10:51.372Z,10.04
2023-04-16T22:13:18.238Z,10.05
2023-04-16T22:15:44.861Z,9.92
2023-04-16T22:18:11.781Z,9.97
2023-04-16T22:20:39.205Z,10.02
2023-04-16T22:23:06.718Z,10.00
2023-04-16T22:25:33.740Z,9.98
2023-04-16T22:28:03.617Z,9.88
2023-04-16T22:30:30.359Z,9.86
2023-04-16T22:32:57.792Z,9.82
2023-04-16T22:35:24.436Z,9.87
2023-04-16T22:37:51.089Z,9.65
2023-04-16T22:40:18.309Z,9.64
2023-04-16T22:42:44.960Z,9.66
2023-04-16T22:45:12.686Z,9.83
2023-04-16T22:47:39.507Z,9.72
2023-04-16T22:50:06.768Z,9.68
2023-04-16T22:52:33.501Z,9.60
2023-04-16T22:55:00.165Z,9.69
2023-04-16T22:57:26.828Z,9.70
2023-04-16T22:59:53.613Z,9.50
2023-04-16T23:02:21.557Z,9.67
2023-04-16T23:04:48.375Z,9.60
2023-04-16T23:07:15.821Z,9.64
2023-04-16T23:09:42.655Z,9.70
2023-04-16T23:12:09.285Z,9.81
2023-04-16T23:14:37.059Z,9.84
2023-04-16T23:17:03.732Z,9.85
2023-04-16T23:19:31.299Z,9.83
2023-04-16T23:21:58.210Z,9.82
2023-04-16T23:24:25.139Z,9.81
2023-04-16T23:26:52.506Z,9.76
2023-04-16T23:29:21.094Z,9.69
2023-04-16T23:31:47.940Z,9.74
2023-04-16T23:34:14.944Z,9.79
2023-04-16T23:36:41.769Z,9.86
2023-04-16T23:39:08.388Z,9.85
2023-04-16T23:41:35.151Z,9.83
2023-04-16T23:44:01.867Z,9.97
2023-04-16T23:46:28.558Z,10.00
2023-04-16T23:48:55.470Z,10.14
2023-04-16T23:51:22.388Z,10.21
2023-04-16T23:53:49.087Z,10.19
2023-04-16T23:56:16.368Z,10.21
2023-04-16T23:58:43.010Z,10.24
